AirNav   Pilot Hours Calculator
 
 1068 users online  

AA04 Viking Heliport
Anchorage, Alaska, USA

GOING TO ANCHORAGE?


FAA INFORMATION EFFECTIVE 02 JANUARY 2020

Location

FAA Identifier: AA04
Lat/Long: 61-13-29.1900N 149-50-20.7400W
61-13.486500N 149-50.345667W
61.2247750,-149.8390944
(estimated)
Elevation: 72 ft. / 22 m (estimated)
From city: 2 miles NE of ANCHORAGE, AK
Time zone: UTC -9 (UTC -8 during Daylight Saving Time)
Zip code: 99501

Heliport Operations

Heliport use: Private use. Permission required prior to landing
Activation date: 12/2008
Control tower: no
ARTCC: ANCHORAGE CENTER
FSS: KENAI FLIGHT SERVICE STATION [907-283-7211]
Attendance: UNATNDD
Segmented circle: no

Heliport Communications

WX ASOS at MRI (0.7 nm S): 124.25 (907-271-5277)
WX ASOS at LHD (4 nm SW): PHONE 907-245-5432
WX ASOS at ANC (6 nm SW): PHONE 907-271-5278
WX ASOS at FRN (6 nm NE): 134.25
WX AWOS-3P at BCV (15 nm NE): 135.55 (907-688-0826)

Nearby radio navigation aids

VOR radial/distance  VOR name  Freq  Var
TEDr028/4.9ANCHORAGE VOR/DME113.1518E
BGQr151/21.0BIG LAKE VORTAC112.5019E

 
NDB name  Hdg/Dist  Freq  Var  ID
CAMPBELL LAKE046/6.833816ECMQ -.-. -- --.-

Heliport Services

Runway Information

Helipad H1

Dimensions: 50 x 50 ft. / 15 x 15 m
Surface: asphalt
Traffic pattern: leftleft

Heliport Ownership and Management from official FAA records

Ownership: Privately-owned
Owner: PRUHS CORPORATION
2193 VIKING DR
ANCHORAGE, AK 99501
Phone 907-250-8385
Manager: DANA PRUHS
2193 VIKING DR
ANCHORAGE, AK 99501
Phone 907-250-8385

Instrument Procedures

There are no published instrument procedures at AA04.

Some nearby airports with instrument procedures:

PAMR - Merrill Field Airport (1 nm S)
PAED - Elmendorf Air Force Base (2 nm NE)
PANC - Ted Stevens Anchorage International Airport (6 nm SW)
PAFR - Bryant Army Airfield Heliport (6 nm NE)
PAGQ - Big Lake Airport (19 nm N)
 
Loc | Ops | Rwys | IFR | FBO | Links
Com | Nav | Svcs | Stats | Notes

Crowley
 
Aerial photo
No photo
 
Sectional chart

 
Airport distance calculator
Flying to Viking Heliport? Find the distance to fly.

From to AA04

Sunrise and sunset
Times for 21-Jan-2020
 Local
(UTC-9)
 Zulu
(UTC)
Morning civil twilight08:5217:52
Sunrise09:4618:46
Sunset16:3501:35
Evening civil twilight17:2902:29

Current date and time
Zulu (UTC)  21-Jan-2020 13:19:46
Local (UTC-9)  21-Jan-2020 04:19:46
 
METAR
PAMR 211253Z 00000KT 10SM FEW050 OVC120 M15/M17 A2950 RMK AO2 SLP991 T11501167 $
PAED 
2nm NE 
211256Z AUTO 00000KT 10SM FEW120 M12/M13 A2949 RMK AO2 SLP985 T11191135 $
PALH 
4nm SW 
211253Z 35003KT 1 1/2SM CLR M11/M13 A2951 RMK AO2 SFC VIS 10 SLP994 T11061128
PAFR 
6nm NE 
211258Z AUTO 06003KT 10SM FEW090 OVC120 M12/M14 A2945 RMK AO2 SLP985 P0000 T11221139 FZRANO $
PANC 
6nm SW 
211253Z 34005KT 10SM CLR M08/M11 A2950 RMK AO2 SLP992 T10831111
PABV 
15nm NE 
211256Z AUTO 20003KT 6SM -SN BR FEW024 OVC049 M11/M12 A2951 RMK AO2 SNB22 SLP001 P0000 T11061122 FZRANO
TAF
PAED 
2nm NE 
210300Z 2103/2209 VRB06KT 4800 -SN BR BKN020 620123 QNH2935INS TEMPO 2103/2108 3200 -SN BR BKN012 620083 BECMG 2110/2111 VRB06KT 9999 NSW BKN015 610153 QNH2938INS BECMG 2203/2204 VRB06KT 4800 -SN BKN012 620123 QNH2940INS TXM06/2201Z TNM19/2114Z
PANC 
6nm SW 
210341Z 2104/2206 VRB04KT 6SM -SN SCT020 OVC035 TEMPO 2104/2108 3SM -SN BR OVC020 FM211000 VRB04KT P6SM VCSH SCT010 OVC045
NOTAMs
Click for the latest NOTAMs
NOTAMs are issued by the DoD/FAA and will open in a separate window not controlled by AirNav.

 

 
 

Would you like to see your business listed on this page?

 If your business provides an interesting product or service to pilots, flight crews, aircraft, or users of the Viking Heliport, you should consider listing it here.  To start the listing process, click on the button below
 
Add a business
 

Other Pages about Viking Heliport

Update a link
 
Copyright © AirNav, LLC. All rights reserved. Privacy Policy  Contact